This is the latest recevied weather packets stored in our database for station/object SR9NLI. If no packets are shown the sender has not sent any weather packets the latest 1 day(s).
| Time | Temp. | Humidity | Pressure | Rain* | Wind** | Luminosity | Snow |
|---|---|---|---|---|---|---|---|
| 1836274804 | 11.11° C | 100% | 966.8 hPa | - | 0.45 m/s, 236° | - | - |
| 1836274743 | 11.11° C | 100% | 966.8 hPa | - | 0.45 m/s, 214° | - | - |
| 1836274623 | 11.11° C | 100% | 966.9 hPa | - | 0.45 m/s, 0° | - | - |
| 1836274503 | 11.11° C | 100% | 966.8 hPa | - | 0.45 m/s, 0° | - | - |
| 1836274474 | 11.11° C | 100% | 966.8 hPa | - | 0.89 m/s, 326° | - | - |
| 1836274444 | 11.11° C | 100% | 966.9 hPa | - | 0.89 m/s, 350° | - | - |
| 1836274415 | 11.11° C | 100% | 966.8 hPa | - | 0.89 m/s, 325° | - | - |
| 1836274383 | 11.67° C | 100% | 966.9 hPa | - | 0.89 m/s, 348° | - | - |
| 1836274354 | 11.67° C | 100% | 966.7 hPa | - | 0.89 m/s, 323° | - | - |
| 1836274263 | 11.67° C | 100% | 966.9 hPa | - | 0.89 m/s, 333° | - | - |
| 1836274234 | 11.67° C | 100% | 966.7 hPa | - | 0.89 m/s, 312° | - | - |
| 1836274143 | 11.67° C | 100% | 966.9 hPa | - | 0.89 m/s, 324° | - | - |
| 1836274114 | 11.67° C | 100% | 966.7 hPa | - | 0.45 m/s, 273° | - | - |
| 1836274023 | 11.67° C | 100% | 966.9 hPa | - | 0.89 m/s, 333° | - | - |
| 1836273902 | 11.67° C | 100% | 966.9 hPa | - | 0.89 m/s, 334° | - | - |
| 1778022380 | 14.44° C | 100% | 948.5 hPa | - | 2.24 m/s, 328° | - | - |
| 1778022262 | 15° C | 100% | 948.5 hPa | - | 1.79 m/s, 286° | - | - |
| 1778022195 | 15° C | 100% | 948.5 hPa | - | 2.24 m/s, 192° | - | - |
| 1778022133 | 15.56° C | 100% | 948.6 hPa | - | 2.68 m/s, 181° | - | - |
| 1778022011 | 16.67° C | 100% | 948.4 hPa | - | 2.24 m/s, 176° | - | - |
| 1778021887 | 16.11° C | 100% | 948.5 hPa | - | 1.79 m/s, 217° | - | - |
| 1778021826 | 16.11° C | 100% | 948.4 hPa | - | 2.24 m/s, 246° | - | - |
| 1778021764 | 15.56° C | 100% | 948.4 hPa | - | 2.24 m/s, 258° | - | - |
| 1778021640 | 15.56° C | 100% | 948.5 hPa | - | 2.24 m/s, 262° | - | - |
| 1778021517 | 15.56° C | 100% | 948.6 hPa | - | 1.34 m/s, 166° | - | - |
* Rain since midnight (hover to see other rain measurements)
** Current wind speed in m/s (hover to see current wind gust speed)